createdAt,value
2018-12-14T00:00:47.409Z,76.10
2018-12-14T00:03:15.909Z,75.90
2018-12-14T00:05:44.450Z,75.70
2018-12-14T00:08:13.241Z,75.70
2018-12-14T00:10:41.779Z,75.80
2018-12-14T00:13:10.320Z,76.40
2018-12-14T00:15:38.798Z,75.80
2018-12-14T00:18:07.270Z,75.60
2018-12-14T00:20:36.003Z,75.70
2018-12-14T00:23:04.488Z,75.90
2018-12-14T00:25:33.060Z,75.70
2018-12-14T00:28:02.316Z,75.70
2018-12-14T00:30:30.855Z,75.80
2018-12-14T00:32:59.486Z,76.00
2018-12-14T00:35:28.590Z,75.90
2018-12-14T00:37:57.097Z,75.90
2018-12-14T00:40:25.606Z,75.90
2018-12-14T00:42:54.122Z,75.90
2018-12-14T00:45:23.200Z,75.90
2018-12-14T00:47:51.730Z,75.70
2018-12-14T00:50:20.366Z,75.70
2018-12-14T00:52:48.893Z,75.70
2018-12-14T00:55:17.398Z,75.80
2018-12-14T00:57:46.114Z,75.80
2018-12-14T01:00:15.620Z,75.80
2018-12-14T01:02:44.216Z,75.70
2018-12-14T01:05:12.925Z,75.80
2018-12-14T01:07:41.494Z,75.90
2018-12-14T01:10:10.079Z,75.80
2018-12-14T01:12:38.560Z,75.90
2018-12-14T01:15:07.351Z,76.00
2018-12-14T01:17:35.836Z,76.10
2018-12-14T01:20:05.297Z,76.10
2018-12-14T01:22:33.810Z,76.10
2018-12-14T01:25:02.341Z,76.10
2018-12-14T01:27:31.206Z,76.10
2018-12-14T01:30:00.472Z,76.10
2018-12-14T01:32:28.971Z,76.20
2018-12-14T01:34:57.599Z,76.20
2018-12-14T01:37:26.126Z,76.20
2018-12-14T01:39:54.689Z,76.10
2018-12-14T01:42:23.258Z,76.70
2018-12-14T01:44:51.821Z,75.90
2018-12-14T01:47:20.626Z,75.60
2018-12-14T01:49:49.190Z,75.90
2018-12-14T01:52:17.774Z,75.90
2018-12-14T01:54:46.279Z,76.00
2018-12-14T01:57:14.829Z,75.70
2018-12-14T01:59:43.508Z,75.60
2018-12-14T02:02:12.350Z,75.30
2018-12-14T02:04:41.292Z,75.20
2018-12-14T02:07:09.887Z,75.40
2018-12-14T02:09:38.443Z,75.40
2018-12-14T02:12:11.201Z,75.30
2018-12-14T02:14:37.740Z,75.60
2018-12-14T02:17:06.243Z,75.50
2018-12-14T02:19:34.774Z,75.40
2018-12-14T02:22:03.292Z,75.00
2018-12-14T02:24:31.903Z,75.10
2018-12-14T02:27:00.735Z,75.50
2018-12-14T02:29:29.386Z,75.30
2018-12-14T02:31:58.438Z,75.40
2018-12-14T02:34:26.948Z,75.30
2018-12-14T02:36:55.499Z,75.30
2018-12-14T02:39:23.992Z,75.30
2018-12-14T02:41:52.533Z,75.10
2018-12-14T02:44:21.012Z,75.20
2018-12-14T02:46:49.570Z,75.30
2018-12-14T02:49:18.187Z,75.10
2018-12-14T02:51:46.705Z,74.80
2018-12-14T02:54:15.625Z,74.60
2018-12-14T02:56:44.137Z,74.80
2018-12-14T02:59:12.631Z,74.60
2018-12-14T03:01:41.200Z,74.70
2018-12-14T03:04:10.059Z,74.70
2018-12-14T03:06:38.715Z,74.60
2018-12-14T03:09:07.236Z,74.70
2018-12-14T03:11:35.741Z,74.70
2018-12-14T03:14:04.524Z,74.80
2018-12-14T03:16:33.037Z,74.90
2018-12-14T03:19:01.637Z,75.00
2018-12-14T03:21:30.117Z,75.10
2018-12-14T03:23:58.597Z,75.40
2018-12-14T03:26:27.665Z,75.60
2018-12-14T03:28:56.173Z,75.70
2018-12-14T03:31:24.757Z,75.70
2018-12-14T03:33:53.691Z,75.70
2018-12-14T03:36:22.230Z,75.70
2018-12-14T03:38:51.028Z,75.80
2018-12-14T03:41:19.551Z,76.80
2018-12-14T03:43:48.154Z,75.50
2018-12-14T03:46:17.220Z,75.30
2018-12-14T03:48:46.104Z,75.30
2018-12-14T03:51:17.499Z,75.30
2018-12-14T03:53:46.707Z,75.20
2018-12-14T03:56:16.110Z,75.30
2018-12-14T03:58:44.588Z,75.30
2018-12-14T04:01:13.120Z,75.00
2018-12-14T04:03:42.098Z,75.10
2018-12-14T04:06:10.593Z,76.20
2018-12-14T04:08:39.273Z,75.70
2018-12-14T04:11:08.172Z,75.40
2018-12-14T04:13:37.299Z,75.20
2018-12-14T04:16:06.119Z,75.40
2018-12-14T04:18:35.833Z,75.40
2018-12-14T04:21:04.375Z,76.40
2018-12-14T04:23:33.005Z,76.40
2018-12-14T04:26:01.944Z,75.50
2018-12-14T04:28:30.626Z,75.50
2018-12-14T04:30:59.118Z,75.50
2018-12-14T04:33:28.904Z,75.20
2018-12-14T04:35:57.882Z,75.30
2018-12-14T04:38:26.361Z,75.30
2018-12-14T04:40:55.062Z,75.10
2018-12-14T04:43:23.616Z,75.40
2018-12-14T04:45:52.180Z,75.30
2018-12-14T04:48:20.734Z,75.10
2018-12-14T04:50:49.249Z,75.10
2018-12-14T04:53:17.878Z,74.90
2018-12-14T04:55:46.394Z,74.60
2018-12-14T04:58:15.048Z,74.60
2018-12-14T05:00:43.566Z,74.70
2018-12-14T05:03:12.104Z,75.00
2018-12-14T05:05:40.738Z,75.10
2018-12-14T05:08:09.270Z,75.00
2018-12-14T05:10:37.888Z,75.20
2018-12-14T05:13:06.740Z,75.10
2018-12-14T05:15:35.389Z,75.10
2018-12-14T05:18:04.249Z,75.30
2018-12-14T05:20:32.758Z,75.50
2018-12-14T05:23:01.289Z,75.40
2018-12-14T05:25:29.867Z,75.30
2018-12-14T05:27:58.364Z,75.30
2018-12-14T05:30:27.072Z,75.40
2018-12-14T05:32:55.603Z,75.50
2018-12-14T05:35:24.110Z,75.60
2018-12-14T05:37:52.758Z,75.70
2018-12-14T05:40:21.241Z,75.80
2018-12-14T05:42:50.490Z,75.80
2018-12-14T05:45:19.920Z,75.90
2018-12-14T05:47:48.592Z,76.40
2018-12-14T05:50:17.066Z,75.70
2018-12-14T05:52:45.563Z,76.50
2018-12-14T05:55:14.442Z,75.60
2018-12-14T05:57:42.919Z,75.30
2018-12-14T06:00:12.596Z,75.60
2018-12-14T06:02:41.104Z,75.70
2018-12-14T06:05:09.686Z,75.40
2018-12-14T06:07:38.354Z,75.50
2018-12-14T06:10:07.720Z,75.30
2018-12-14T06:12:36.308Z,75.50
2018-12-14T06:15:05.730Z,75.50
2018-12-14T06:17:34.260Z,75.70
2018-12-14T06:20:03.560Z,75.70
2018-12-14T06:22:32.107Z,75.60
2018-12-14T06:25:00.683Z,75.50
2018-12-14T06:27:29.760Z,75.40
2018-12-14T06:29:58.238Z,75.10
2018-12-14T06:32:27.259Z,75.10
2018-12-14T06:34:55.720Z,75.00
2018-12-14T06:37:24.549Z,74.90
2018-12-14T06:39:54.307Z,74.60
2018-12-14T06:42:23.658Z,74.50
2018-12-14T06:44:53.266Z,74.70
2018-12-14T06:47:22.615Z,74.80
2018-12-14T06:49:51.322Z,74.80
2018-12-14T06:52:20.398Z,75.10
2018-12-14T06:54:48.927Z,74.80
2018-12-14T06:57:17.905Z,74.70
2018-12-14T06:59:47.171Z,74.60
2018-12-14T07:02:15.722Z,74.70
2018-12-14T07:04:44.225Z,74.40
2018-12-14T07:07:13.216Z,74.20
2018-12-14T07:09:42.159Z,74.00
2018-12-14T07:12:10.684Z,73.90
2018-12-14T07:14:39.266Z,74.00
2018-12-14T07:17:07.811Z,73.80
2018-12-14T07:19:36.882Z,73.60
2018-12-14T07:22:05.818Z,73.20
2018-12-14T07:24:34.975Z,74.40
2018-12-14T07:27:03.535Z,74.10
2018-12-14T07:29:32.560Z,74.00
2018-12-14T07:32:02.669Z,73.60
2018-12-14T07:34:31.314Z,73.50
2018-12-14T07:36:59.789Z,73.30
2018-12-14T07:39:28.324Z,73.10
2018-12-14T07:41:57.117Z,72.90
2018-12-14T07:44:25.670Z,72.80
2018-12-14T07:46:54.357Z,72.90
2018-12-14T07:49:22.928Z,72.90
2018-12-14T07:51:51.423Z,72.70
2018-12-14T07:54:19.965Z,72.50
2018-12-14T07:56:48.590Z,73.00
2018-12-14T07:59:17.167Z,72.00
2018-12-14T08:01:45.637Z,72.00
2018-12-14T08:04:14.150Z,71.50
2018-12-14T08:06:42.646Z,72.00
2018-12-14T08:09:11.643Z,71.60
2018-12-14T08:11:40.279Z,71.70
2018-12-14T08:14:08.774Z,71.50
2018-12-14T08:21:35.197Z,71.30
2018-12-14T08:24:04.236Z,70.80
2018-12-14T08:26:32.721Z,71.00
2018-12-14T08:29:01.438Z,71.10
2018-12-14T08:31:30.931Z,71.70
2018-12-14T08:33:59.468Z,71.50
2018-12-14T08:36:28.119Z,71.00
2018-12-14T08:38:56.640Z,71.00
2018-12-14T08:41:25.291Z,71.30
2018-12-14T08:43:54.218Z,71.50
2018-12-14T08:46:24.112Z,71.30
2018-12-14T08:48:52.796Z,71.20
2018-12-14T08:51:21.952Z,69.60
2018-12-14T08:53:51.394Z,69.90
2018-12-14T08:56:21.299Z,70.30
2018-12-14T08:58:50.147Z,69.90
2018-12-14T09:01:18.898Z,69.40
2018-12-14T09:03:47.902Z,69.10
2018-12-14T09:06:16.415Z,69.00
2018-12-14T09:08:45.229Z,69.00
2018-12-14T09:11:13.749Z,69.20
2018-12-14T09:13:47.683Z,69.40
2018-12-14T09:16:12.835Z,69.40
2018-12-14T09:18:41.339Z,69.70
2018-12-14T09:28:05.962Z,69.70
2018-12-14T09:30:34.480Z,68.90
2018-12-14T09:33:02.961Z,68.50
2018-12-14T09:35:31.473Z,68.10
2018-12-14T09:38:00.044Z,68.10
2018-12-14T09:40:28.566Z,67.90
2018-12-14T09:42:57.560Z,67.50
2018-12-14T09:45:26.556Z,66.70
2018-12-14T09:47:55.064Z,65.70
2018-12-14T09:50:23.648Z,65.70
2018-12-14T09:52:52.167Z,65.00
2018-12-14T09:55:20.690Z,65.00
2018-12-14T09:57:49.181Z,65.30
2018-12-14T10:00:17.998Z,65.00
2018-12-14T10:02:46.951Z,64.70
2018-12-14T10:05:15.712Z,64.60
2018-12-14T10:07:46.901Z,64.50
2018-12-14T10:10:14.753Z,64.30
2018-12-14T10:12:43.268Z,64.10
2018-12-14T10:15:12.006Z,63.90
2018-12-14T10:17:40.550Z,64.40
2018-12-14T10:20:10.237Z,65.00
2018-12-14T10:22:41.477Z,64.70
2018-12-14T10:25:09.303Z,65.00
2018-12-14T10:27:38.074Z,64.60
2018-12-14T10:30:07.535Z,64.60
2018-12-14T10:32:36.036Z,64.50
2018-12-14T10:35:05.258Z,64.80
2018-12-14T10:37:33.774Z,64.10
2018-12-14T10:40:02.341Z,62.80
2018-12-14T10:42:31.120Z,62.60
2018-12-14T10:45:00.221Z,62.50
2018-12-14T10:47:28.936Z,62.30
2018-12-14T10:49:57.432Z,62.00
2018-12-14T10:52:26.145Z,61.80
2018-12-14T10:54:54.975Z,62.20
2018-12-14T10:57:24.279Z,61.40
2018-12-14T10:59:52.840Z,61.40
2018-12-14T11:02:21.329Z,61.30
2018-12-14T11:04:50.064Z,60.80
2018-12-14T11:07:18.564Z,60.00
2018-12-14T11:09:47.052Z,60.20
2018-12-14T11:12:15.776Z,59.80
2018-12-14T11:14:44.207Z,60.00
2018-12-14T11:17:12.748Z,59.80
2018-12-14T11:19:41.379Z,59.90
2018-12-14T11:22:09.891Z,59.90
2018-12-14T11:24:38.497Z,59.50
2018-12-14T11:27:07.089Z,59.10
2018-12-14T11:29:35.779Z,59.50
2018-12-14T11:32:04.306Z,59.50
2018-12-14T11:34:32.833Z,59.10
2018-12-14T11:37:01.299Z,60.10
2018-12-14T11:39:29.806Z,60.10
2018-12-14T11:41:58.759Z,59.90
2018-12-14T11:44:27.282Z,59.80
2018-12-14T11:46:55.769Z,59.60
2018-12-14T11:49:24.490Z,59.70
2018-12-14T11:51:52.961Z,59.70
2018-12-14T11:54:21.526Z,59.70
2018-12-14T11:56:50.106Z,59.70
2018-12-14T11:59:18.626Z,60.00
2018-12-14T12:01:47.232Z,59.90
2018-12-14T12:04:16.082Z,60.20
2018-12-14T12:06:44.936Z,61.00
2018-12-14T12:09:13.571Z,60.90
2018-12-14T12:11:42.098Z,61.80
2018-12-14T12:14:10.611Z,62.80
2018-12-14T12:16:39.113Z,62.50
2018-12-14T12:19:07.675Z,61.80
2018-12-14T12:21:36.468Z,61.30
2018-12-14T12:24:04.968Z,60.70
2018-12-14T12:26:33.478Z,60.70
2018-12-14T12:29:02.081Z,60.50
2018-12-14T12:31:32.045Z,60.30
2018-12-14T12:34:00.616Z,60.00
2018-12-14T12:36:29.055Z,61.30
2018-12-14T12:38:57.924Z,61.60
2018-12-14T12:41:26.430Z,61.30
2018-12-14T12:43:55.023Z,60.60
2018-12-14T12:46:23.515Z,60.60
2018-12-14T12:48:52.582Z,60.70
2018-12-14T12:51:21.897Z,60.90
2018-12-14T12:53:50.380Z,61.60
2018-12-14T12:56:19.434Z,61.80
2018-12-14T12:58:48.024Z,62.20
2018-12-14T13:01:16.536Z,62.40
2018-12-14T13:03:45.078Z,62.40
2018-12-14T13:06:13.595Z,61.80
2018-12-14T13:08:42.254Z,61.90
2018-12-14T13:11:11.056Z,61.50
2018-12-14T13:13:39.447Z,61.90
2018-12-14T13:16:07.942Z,62.10
2018-12-14T13:18:36.468Z,62.50
2018-12-14T13:21:04.971Z,60.90
2018-12-14T13:23:33.535Z,60.50
2018-12-14T13:26:02.017Z,60.20
2018-12-14T13:28:31.294Z,60.70
2018-12-14T13:30:59.830Z,60.10
2018-12-14T13:33:28.957Z,60.80
2018-12-14T13:35:57.448Z,60.00
2018-12-14T13:38:25.914Z,59.50
2018-12-14T13:40:54.435Z,59.30
2018-12-14T13:43:23.023Z,59.10
2018-12-14T13:45:53.013Z,59.20
2018-12-14T13:48:21.890Z,59.80
2018-12-14T13:50:50.398Z,60.30
2018-12-14T13:53:19.464Z,60.20
2018-12-14T13:55:48.070Z,59.60
2018-12-14T13:58:16.630Z,59.10
2018-12-14T14:00:45.164Z,59.00
2018-12-14T14:03:13.646Z,59.20
2018-12-14T14:05:42.113Z,59.60
2018-12-14T14:08:10.641Z,59.40
2018-12-14T14:10:39.834Z,59.80
2018-12-14T14:13:08.328Z,59.60
2018-12-14T14:15:36.854Z,60.00
2018-12-14T14:18:05.437Z,59.20
2018-12-14T14:20:33.922Z,59.50
2018-12-14T14:23:02.593Z,59.40
2018-12-14T14:25:31.268Z,59.20
2018-12-14T14:27:59.807Z,59.10
2018-12-14T14:30:28.343Z,58.10
2018-12-14T14:32:56.980Z,58.00
2018-12-14T14:35:25.746Z,58.30
2018-12-14T14:37:57.399Z,58.50
2018-12-14T14:40:24.934Z,59.40
2018-12-14T14:42:53.510Z,60.00
2018-12-14T14:45:22.040Z,60.60
2018-12-14T14:47:50.836Z,60.30
2018-12-14T14:50:19.363Z,59.80
2018-12-14T14:52:47.902Z,58.80
2018-12-14T14:55:17.478Z,59.20
2018-12-14T14:57:46.305Z,59.30
2018-12-14T15:00:15.115Z,59.90
2018-12-14T15:02:44.589Z,60.20
2018-12-14T15:05:14.256Z,60.20
2018-12-14T15:07:42.795Z,60.00
2018-12-14T15:10:11.358Z,60.00
2018-12-14T15:12:41.164Z,60.30
2018-12-14T15:15:09.837Z,60.90
2018-12-14T15:17:38.360Z,60.80
2018-12-14T15:20:07.062Z,61.40
2018-12-14T15:22:36.442Z,61.10
2018-12-14T15:25:05.439Z,60.00
2018-12-14T15:27:33.989Z,60.40
2018-12-14T15:30:02.507Z,60.90
2018-12-14T15:32:31.292Z,60.70
2018-12-14T15:34:59.747Z,60.30
2018-12-14T15:37:28.347Z,60.70
2018-12-14T15:39:56.881Z,61.20
2018-12-14T15:42:25.365Z,60.70
2018-12-14T15:44:53.858Z,59.90
2018-12-14T15:47:22.566Z,59.60
2018-12-14T15:49:51.944Z,59.50
2018-12-14T15:52:20.460Z,59.80
2018-12-14T15:54:49.030Z,59.80
2018-12-14T15:57:18.085Z,59.50
2018-12-14T15:59:47.915Z,59.20
2018-12-14T16:02:16.488Z,59.50
2018-12-14T16:04:45.034Z,59.60
2018-12-14T16:07:14.586Z,60.30
2018-12-14T16:09:43.119Z,59.70
2018-12-14T16:12:12.057Z,59.50
2018-12-14T16:14:40.990Z,59.40
2018-12-14T16:17:09.578Z,59.50
2018-12-14T16:19:38.079Z,59.50
2018-12-14T16:22:06.564Z,59.60
2018-12-14T16:24:35.074Z,60.30
2018-12-14T16:27:03.664Z,60.10
2018-12-14T16:29:32.177Z,60.00
2018-12-14T16:32:00.691Z,60.10
2018-12-14T16:34:29.150Z,60.50
2018-12-14T16:36:57.628Z,60.60
2018-12-14T16:39:26.495Z,60.70
2018-12-14T16:41:55.049Z,61.10
2018-12-14T16:44:23.598Z,61.10
2018-12-14T16:46:53.092Z,61.00
2018-12-14T16:49:21.676Z,61.00
2018-12-14T16:51:50.732Z,61.00
2018-12-14T16:54:19.237Z,61.40
2018-12-14T16:56:47.842Z,62.00
2018-12-14T16:59:16.926Z,60.80
2018-12-14T17:01:46.359Z,60.50
2018-12-14T17:04:14.901Z,60.70
2018-12-14T17:06:43.631Z,60.90
2018-12-14T17:09:12.221Z,61.30
2018-12-14T17:11:40.720Z,61.60
2018-12-14T17:14:09.632Z,61.60
2018-12-14T17:16:38.697Z,61.90
2018-12-14T17:19:07.195Z,61.90
2018-12-14T17:21:35.725Z,61.80
2018-12-14T17:24:04.369Z,62.10
2018-12-14T17:26:32.854Z,61.80
2018-12-14T17:29:01.444Z,61.40
2018-12-14T17:31:30.822Z,60.20
2018-12-14T17:33:59.529Z,60.80
2018-12-14T17:36:28.016Z,60.80
2018-12-14T17:38:57.128Z,61.50
2018-12-14T17:41:26.082Z,61.70
2018-12-14T17:43:54.617Z,61.70
2018-12-14T17:46:23.174Z,62.00
2018-12-14T17:48:51.676Z,61.60
2018-12-14T17:51:20.300Z,61.20
2018-12-14T17:53:48.948Z,61.10
2018-12-14T17:56:18.097Z,61.20
2018-12-14T17:58:47.195Z,61.50
2018-12-14T18:01:16.782Z,61.80
2018-12-14T18:03:46.374Z,61.20
2018-12-14T18:06:14.917Z,60.80
2018-12-14T18:08:44.385Z,61.30
2018-12-14T18:11:12.909Z,61.90
2018-12-14T18:13:41.363Z,61.90
2018-12-14T18:16:10.068Z,61.60
2018-12-14T18:18:38.636Z,61.40
2018-12-14T18:21:07.190Z,62.20
2018-12-14T18:23:35.654Z,62.40
2018-12-14T18:26:04.248Z,61.50
2018-12-14T18:28:33.450Z,60.70
2018-12-14T18:31:02.013Z,61.20
2018-12-14T18:33:30.475Z,60.90
2018-12-14T18:35:59.011Z,60.70
2018-12-14T18:38:27.478Z,61.10
2018-12-14T18:40:55.924Z,61.30
2018-12-14T18:43:24.616Z,61.00
2018-12-14T18:45:53.622Z,60.90
2018-12-14T18:48:22.265Z,61.20
2018-12-14T18:50:51.770Z,61.30
2018-12-14T18:53:20.329Z,61.40
2018-12-14T18:55:48.951Z,61.40
2018-12-14T18:58:17.498Z,61.30
2018-12-14T19:00:46.064Z,61.30
2018-12-14T19:03:15.904Z,61.20
2018-12-14T19:05:44.389Z,61.40
2018-12-14T19:25:31.374Z,61.70
2018-12-14T19:28:00.091Z,62.00
2018-12-14T19:30:29.629Z,61.90
2018-12-14T19:32:58.736Z,62.00
2018-12-14T19:35:27.886Z,62.00
2018-12-14T19:37:56.405Z,61.90
2018-12-14T19:40:24.874Z,61.80
2018-12-14T19:42:53.994Z,61.60
2018-12-14T19:45:23.058Z,61.90
2018-12-14T19:47:51.541Z,62.20
2018-12-14T19:50:20.026Z,63.20
2018-12-14T19:52:48.529Z,62.80
2018-12-14T19:55:17.144Z,62.80
2018-12-14T19:57:45.844Z,63.00
2018-12-14T20:00:14.565Z,63.40
2018-12-14T20:02:43.086Z,63.50
2018-12-14T20:05:12.623Z,63.10
2018-12-14T20:07:41.354Z,62.70
2018-12-14T20:10:10.533Z,62.80
2018-12-14T20:15:08.216Z,63.00
2018-12-14T20:17:37.445Z,63.20
2018-12-14T20:20:06.699Z,63.40
2018-12-14T20:22:35.428Z,63.40
2018-12-14T20:25:05.656Z,63.70
2018-12-14T20:27:34.279Z,63.80
2018-12-14T20:30:03.769Z,63.60
2018-12-14T20:32:32.383Z,63.80
2018-12-14T20:35:02.157Z,64.20
2018-12-14T20:37:31.699Z,65.10
2018-12-14T20:40:00.203Z,64.00
2018-12-14T20:42:28.990Z,63.70
2018-12-14T20:44:58.383Z,63.50
2018-12-14T20:47:27.909Z,63.30
2018-12-14T20:49:57.320Z,63.70
2018-12-14T20:52:25.855Z,63.50
2018-12-14T20:54:54.401Z,63.20
2018-12-14T20:57:22.935Z,63.20
2018-12-14T20:59:51.957Z,63.20
2018-12-14T21:02:20.466Z,63.60
2018-12-14T21:04:49.026Z,63.50
2018-12-14T21:07:17.991Z,63.80
2018-12-14T21:09:46.866Z,63.70
2018-12-14T21:12:17.031Z,63.70
2018-12-14T21:14:50.768Z,63.60
2018-12-14T21:17:16.026Z,63.80
2018-12-14T21:19:44.502Z,64.10
2018-12-14T21:22:13.428Z,64.40
2018-12-14T21:24:42.571Z,64.40
2018-12-14T21:27:11.954Z,64.50
2018-12-14T21:29:40.507Z,64.40
2018-12-14T21:32:09.044Z,64.40
2018-12-14T21:34:38.333Z,64.40
2018-12-14T21:37:06.934Z,64.40
2018-12-14T21:39:35.424Z,65.00
2018-12-14T21:42:04.019Z,64.80
2018-12-14T21:44:33.541Z,64.80
2018-12-14T21:47:02.394Z,65.00
2018-12-14T21:49:31.039Z,65.10
2018-12-14T21:51:59.568Z,65.20
2018-12-14T21:54:28.070Z,65.60
2018-12-14T21:56:56.575Z,65.60
2018-12-14T21:59:25.711Z,65.60
2018-12-14T22:01:54.836Z,65.80
2018-12-14T22:04:23.282Z,66.80
2018-12-14T22:06:52.102Z,66.30
2018-12-14T22:09:22.411Z,67.30
2018-12-14T22:11:50.994Z,66.80
2018-12-14T22:14:19.674Z,67.10
2018-12-14T22:16:49.236Z,67.20
2018-12-14T22:19:17.763Z,67.40
2018-12-14T22:21:46.280Z,67.30
2018-12-14T22:24:14.825Z,68.40
2018-12-14T22:26:43.579Z,67.50
2018-12-14T22:29:12.165Z,68.40
2018-12-14T22:31:40.681Z,67.80
2018-12-14T22:34:09.152Z,67.80
2018-12-14T22:36:37.820Z,68.20
2018-12-14T22:39:08.105Z,68.30
2018-12-14T22:41:36.988Z,69.00
2018-12-14T22:44:05.522Z,68.10
2018-12-14T22:46:34.054Z,68.20
2018-12-14T22:49:02.618Z,67.90
2018-12-14T22:51:31.655Z,67.70
2018-12-14T22:54:00.165Z,67.80
2018-12-14T22:56:28.800Z,67.60
2018-12-14T22:58:57.334Z,67.80
2018-12-14T23:01:25.822Z,67.60
2018-12-14T23:03:54.430Z,67.50
2018-12-14T23:06:23.123Z,67.70
2018-12-14T23:08:51.776Z,67.40
2018-12-14T23:11:21.676Z,67.30
2018-12-14T23:13:50.630Z,66.70
2018-12-14T23:16:19.233Z,67.00
2018-12-14T23:18:48.215Z,67.10
2018-12-14T23:21:16.787Z,66.90
2018-12-14T23:23:45.449Z,66.80
2018-12-14T23:26:14.815Z,66.90
2018-12-14T23:28:43.502Z,67.10
2018-12-14T23:31:12.758Z,67.80
2018-12-14T23:33:41.196Z,67.50
2018-12-14T23:36:09.712Z,67.60
2018-12-14T23:38:39.724Z,67.80
2018-12-14T23:41:08.986Z,67.70
2018-12-14T23:43:37.523Z,67.90
2018-12-14T23:46:06.051Z,68.00
2018-12-14T23:48:34.619Z,68.00
2018-12-14T23:51:03.473Z,68.10
2018-12-14T23:53:32.306Z,68.00
2018-12-14T23:56:00.844Z,68.10
2018-12-14T23:58:29.393Z,68.10
